CDT,Max TemperatureF,Mean TemperatureF,Min TemperatureF,Max Dew PointF,MeanDew PointF,Min DewpointF,Max Humidity, Mean Humidity, Min Humidity, Max Sea Level PressureIn, Mean Sea Level PressureIn, Min Sea Level PressureIn, Max VisibilityMiles, Mean VisibilityMiles, Min VisibilityMiles, Max Wind SpeedMPH, Mean Wind SpeedMPH, Max Gust SpeedMPH,PrecipitationIn, CloudCover, Events, WindDirDegrees
2012-3-1,82,75,68,66,65,63,90,76,62,29.95,29.88,29.71,10,8,3,17,7,23,0.01,7,Rain,183
2012-3-2,81,71,60,67,60,39,84,59,33,29.82,29.72,29.67,10,10,6,17,8,23,0.03,6,Rain,221
2012-3-3,65,54,42,38,28,18,60,39,17,30.17,30.00,29.79,10,10,10,17,8,25,T,3,Rain,360
2012-3-4,73,54,35,34,29,20,85,51,16,30.24,30.18,30.13,10,10,10,14,4,20,0.00,0,,236
2012-3-5,79,60,40,45,37,31,82,50,17,30.38,30.30,30.24,10,10,10,10,5,17,0.00,0,,185
2012-3-6,76,62,47,55,49,44,93,66,38,30.29,30.21,30.11,10,10,10,24,11,33,0.00,1,,152
2012-3-7,77,70,63,66,60,55,90,70,50,30.11,30.05,29.99,10,9,3,24,14,32,0.08,7,Rain,150
2012-3-8,76,65,54,70,63,52,93,83,73,30.19,30.04,29.98,10,8,0,28,9,32,2.94,8,Fog-Rain,145
2012-3-9,54,50,45,52,44,38,93,80,66,30.41,30.27,30.17,10,9,3,14,9,29,0.36,8,Rain,29
2012-3-10,65,58,50,50,44,39,83,67,51,30.30,30.21,30.12,10,10,4,16,8,21,0.36,7,Rain,82
2012-3-11,65,60,54,63,59,49,97,92,86,30.09,30.03,29.97,10,5,0,14,7,21,1.35,7,Fog-Rain,178
2012-3-12,79,68,57,65,60,55,97,76,54,30.12,30.06,30.02,10,8,0,13,5,17,0.00,5,Fog,202
2012-3-13,81,74,66,67,65,63,90,76,62,30.18,30.13,30.07,10,9,6,17,6,23,0.00,6,,179
2012-3-14,83,73,63,66,63,60,100,74,47,30.20,30.14,30.08,10,8,1,16,7,23,0.00,5,,151
2012-3-15,82,75,67,66,64,60,93,70,47,30.22,30.16,30.09,10,9,6,17,7,23,0.00,4,,159
2012-3-16,83,74,65,64,63,59,93,70,46,30.19,30.12,30.05,10,10,8,15,7,22,0.00,4,,166
2012-3-17,84,76,67,66,63,57,93,68,43,30.12,30.07,30.00,10,10,9,21,10,28,T,4,Rain,156
2012-3-18,83,75,67,66,65,62,93,72,51,30.07,30.02,29.95,10,10,7,22,11,26,0.00,5,,156
2012-3-19,83,78,72,66,64,62,79,65,51,29.96,29.85,29.75,10,10,2,29,16,39,0.04,6,Rain,156
2012-3-20,73,65,56,65,58,54,93,81,68,29.84,29.77,29.68,10,7,1,15,7,21,1.58,8,Rain,40
2012-3-21,70,61,52,55,49,36,93,63,32,29.94,29.86,29.80,10,9,1,22,6,32,0.02,6,Rain,201
2012-3-22,81,66,50,53,48,41,86,56,25,29.98,29.91,29.85,10,10,10,18,8,26,0.00,0,,171
2012-3-23,80,65,49,54,47,43,86,58,30,30.05,29.99,29.94,10,10,10,9,2,14,0.00,0,,305
2012-3-24,82,67,51,55,50,47,89,60,31,30.06,30.00,29.95,10,10,10,8,2,12,0.00,0,,51
2012-3-25,85,69,52,57,52,48,93,62,31,30.09,30.02,29.98,10,10,8,9,2,12,0.00,0,,352
2012-3-26,87,70,53,60,55,50,93,63,32,30.09,30.03,29.97,10,10,9,13,3,16,0.00,0,,127
2012-3-27,83,69,55,59,57,53,93,68,42,30.10,30.05,30.01,10,10,7,16,4,21,0.00,1,,152
2012-3-28,81,69,56,63,57,54,93,66,39,30.10,30.05,29.95,10,5,0,15,4,21,0.00,3,Fog,130
2012-3-29,74,70,65,67,64,61,93,86,79,29.98,29.92,29.87,10,6,2,12,4,13,0.35,7,Rain,121
2012-3-30,82,74,65,67,64,62,93,76,58,29.91,29.87,29.79,10,10,5,10,4,29,0.00,6,,151
2012-3-31,88,75,61,67,64,59,93,68,43,29.93,29.86,29.78,10,7,1,15,5,23,0.00,2,,172